createdAt,value
2018-07-04T00:01:07.560Z,35.51
2018-07-04T00:03:53.388Z,36.02
2018-07-04T00:06:39.253Z,35.53
2018-07-04T00:09:25.165Z,35.77
2018-07-04T00:12:11.136Z,35.59
2018-07-04T00:14:56.990Z,36.74
2018-07-04T00:17:46.043Z,35.23
2018-07-04T00:20:37.353Z,36.09
2018-07-04T00:23:23.141Z,34.96
2018-07-04T00:26:08.897Z,35.07
2018-07-04T00:28:54.751Z,36.65
2018-07-04T00:31:40.632Z,35.67
2018-07-04T00:34:26.429Z,36.52
2018-07-04T00:37:12.413Z,35.62
2018-07-04T00:39:58.347Z,35.20
2018-07-04T00:42:44.227Z,35.17
2018-07-04T00:45:30.370Z,35.25
2018-07-04T00:48:16.243Z,36.21
2018-07-04T00:51:02.218Z,35.31
2018-07-04T00:53:48.154Z,35.36
2018-07-04T00:56:33.956Z,35.61
2018-07-04T00:59:19.780Z,35.09
2018-07-04T01:02:05.504Z,35.23
2018-07-04T01:04:51.556Z,36.16
2018-07-04T01:07:37.322Z,37.16
2018-07-04T01:10:23.106Z,35.17
2018-07-04T01:13:08.924Z,34.98
2018-07-04T01:15:54.866Z,34.59
2018-07-04T01:18:40.834Z,34.53
2018-07-04T01:21:26.946Z,33.59
2018-07-04T01:24:12.646Z,33.48
2018-07-04T01:26:58.511Z,32.79
2018-07-04T01:29:44.521Z,32.82
2018-07-04T01:32:30.431Z,32.77
2018-07-04T01:35:16.157Z,32.67
2018-07-04T01:38:02.196Z,32.42
2018-07-04T01:40:48.022Z,32.78
2018-07-04T01:43:33.888Z,33.31
2018-07-04T01:46:19.806Z,33.66
2018-07-04T01:49:05.643Z,34.17
2018-07-04T01:51:51.593Z,33.27
2018-07-04T01:54:37.465Z,33.92
2018-07-04T01:57:23.342Z,33.48
2018-07-04T02:00:09.220Z,33.38
2018-07-04T02:02:55.134Z,33.85
2018-07-04T02:05:40.996Z,34.42
2018-07-04T02:08:26.848Z,34.65
2018-07-04T02:11:12.701Z,36.00
2018-07-04T02:13:58.559Z,36.13
2018-07-04T02:16:44.277Z,36.53
2018-07-04T02:19:30.164Z,35.87
2018-07-04T02:22:15.997Z,35.53
2018-07-04T02:25:01.868Z,35.68
2018-07-04T02:27:47.996Z,35.24
2018-07-04T02:30:33.897Z,35.49
2018-07-04T02:33:19.952Z,35.53
2018-07-04T02:36:05.806Z,35.59
2018-07-04T02:38:51.762Z,36.16
2018-07-04T02:41:37.576Z,36.33
2018-07-04T02:44:23.501Z,36.49
2018-07-04T02:47:13.640Z,36.59
2018-07-04T02:49:59.298Z,36.52
2018-07-04T02:52:45.221Z,36.01
2018-07-04T02:55:30.994Z,35.75
2018-07-04T02:58:16.707Z,36.28
2018-07-04T03:01:02.530Z,36.12
2018-07-04T03:03:48.488Z,37.26
2018-07-04T03:06:34.660Z,36.59
2018-07-04T03:09:20.563Z,36.42
2018-07-04T03:12:06.332Z,37.21
2018-07-04T03:14:52.244Z,37.10
2018-07-04T03:17:38.101Z,37.62
2018-07-04T03:20:24.050Z,37.62
2018-07-04T03:23:10.113Z,37.79
2018-07-04T03:25:56.176Z,37.69
2018-07-04T03:28:42.057Z,38.16
2018-07-04T03:31:27.913Z,37.76
2018-07-04T03:34:13.724Z,37.59
2018-07-04T03:36:59.509Z,37.89
2018-07-04T03:39:45.449Z,37.85
2018-07-04T03:42:31.152Z,37.98
2018-07-04T03:45:16.972Z,37.89
2018-07-04T03:48:02.924Z,38.23
2018-07-04T03:50:48.708Z,37.84
2018-07-04T03:53:34.389Z,38.21
2018-07-04T03:56:20.418Z,38.41
2018-07-04T03:59:06.409Z,38.92
2018-07-04T04:01:52.360Z,38.98
2018-07-04T04:04:38.055Z,38.96
2018-07-04T04:07:23.814Z,39.56
2018-07-04T04:10:09.773Z,39.53
2018-07-04T04:12:55.554Z,39.60
2018-07-04T04:15:41.320Z,40.16
2018-07-04T04:18:27.216Z,41.55
2018-07-04T04:21:13.124Z,41.67
2018-07-04T04:23:59.024Z,41.39
2018-07-04T04:26:44.768Z,41.60
2018-07-04T04:29:30.647Z,41.34
2018-07-04T04:32:16.405Z,41.69
2018-07-04T04:35:02.050Z,41.63
2018-07-04T04:37:47.939Z,42.23
2018-07-04T04:40:33.739Z,41.87
2018-07-04T04:43:19.616Z,42.42
2018-07-04T04:46:05.539Z,42.23
2018-07-04T04:48:51.528Z,42.36
2018-07-04T04:51:37.440Z,42.30
2018-07-04T04:54:23.336Z,42.76
2018-07-04T04:57:09.199Z,42.57
2018-07-04T04:59:55.127Z,42.79
2018-07-04T05:02:40.996Z,43.26
2018-07-04T05:05:26.872Z,43.52
2018-07-04T05:08:12.704Z,43.59
2018-07-04T05:10:58.631Z,44.29
2018-07-04T05:13:44.554Z,43.60
2018-07-04T05:16:30.527Z,43.92
2018-07-04T05:19:16.411Z,44.01
2018-07-04T05:22:02.620Z,44.48
2018-07-04T05:24:48.596Z,44.31
2018-07-04T05:27:34.469Z,44.60
2018-07-04T05:30:20.262Z,43.75
2018-07-04T05:33:06.014Z,44.25
2018-07-04T05:35:51.885Z,44.54
2018-07-04T05:38:37.699Z,43.33
2018-07-04T05:41:23.468Z,43.93
2018-07-04T05:44:09.442Z,44.13
2018-07-04T05:46:55.379Z,43.77
2018-07-04T05:49:41.207Z,44.50
2018-07-04T05:52:27.169Z,44.31
2018-07-04T05:55:13.032Z,44.33
2018-07-04T05:57:58.916Z,42.57
2018-07-04T06:00:44.828Z,41.97
2018-07-04T06:03:30.679Z,41.01
2018-07-04T06:06:16.551Z,41.62
2018-07-04T06:09:02.377Z,40.86
2018-07-04T06:11:48.091Z,41.58
2018-07-04T06:14:33.976Z,40.66
2018-07-04T06:17:19.888Z,40.59
2018-07-04T06:20:07.120Z,40.16
2018-07-04T06:22:52.840Z,40.75
2018-07-04T06:25:38.567Z,39.68
2018-07-04T06:28:24.371Z,40.76
2018-07-04T06:31:10.179Z,38.22
2018-07-04T06:33:55.952Z,37.37
2018-07-04T06:36:41.825Z,35.39
2018-07-04T06:39:15.135Z,35.13
2018-07-04T06:41:48.276Z,35.14
2018-07-04T06:44:21.598Z,31.49
2018-07-04T06:46:54.791Z,27.71
2018-07-04T06:49:28.218Z,28.44
2018-07-04T06:52:01.446Z,26.04
2018-07-04T06:54:34.751Z,24.93
2018-07-04T06:57:08.251Z,24.03
2018-07-04T06:59:41.472Z,22.51
2018-07-04T07:02:15.818Z,21.88
2018-07-04T07:05:02.628Z,22.55
2018-07-04T07:07:48.453Z,21.11
2018-07-04T07:10:34.356Z,21.51
2018-07-04T07:13:20.287Z,20.62
2018-07-04T07:16:06.004Z,21.17
2018-07-04T07:18:51.768Z,18.28
2018-07-04T07:21:37.549Z,19.25
2018-07-04T07:24:23.439Z,19.24
2018-07-04T07:27:09.225Z,17.23
2018-07-04T07:29:55.224Z,15.86
2018-07-04T07:32:41.059Z,15.47
2018-07-04T07:35:26.883Z,17.03
2018-07-04T07:38:12.586Z,14.80
2018-07-04T07:40:58.615Z,13.71
2018-07-04T07:43:44.728Z,14.19
2018-07-04T07:46:30.868Z,16.50
2018-07-04T07:49:16.832Z,16.46
2018-07-04T07:52:02.664Z,14.68
2018-07-04T07:54:48.428Z,13.64
2018-07-04T07:57:34.421Z,14.05
2018-07-04T08:00:20.204Z,14.11
2018-07-04T08:03:05.991Z,12.75
2018-07-04T08:05:51.911Z,12.37
2018-07-04T08:08:37.784Z,12.16
2018-07-04T08:11:23.578Z,11.23
2018-07-04T08:14:09.560Z,13.79
2018-07-04T08:16:55.252Z,12.45
2018-07-04T08:19:41.009Z,13.54
2018-07-04T08:22:26.984Z,12.06
2018-07-04T08:25:12.920Z,15.70
2018-07-04T08:27:58.883Z,12.98
2018-07-04T08:30:44.743Z,15.44
2018-07-04T08:33:30.766Z,14.23
2018-07-04T08:36:16.531Z,14.05
2018-07-04T08:39:02.494Z,13.72
2018-07-04T08:41:48.276Z,17.17
2018-07-04T08:44:34.298Z,16.32
2018-07-04T08:47:20.235Z,16.69
2018-07-04T08:50:06.110Z,15.13
2018-07-04T08:52:52.090Z,15.45
2018-07-04T08:55:38.017Z,13.94
2018-07-04T08:58:24.056Z,15.16
2018-07-04T09:01:09.863Z,18.11
2018-07-04T09:03:55.787Z,19.34
2018-07-04T09:06:41.684Z,21.07
2018-07-04T09:09:27.636Z,23.66
2018-07-04T09:12:13.524Z,24.24
2018-07-04T09:14:59.459Z,25.83
2018-07-04T09:17:46.088Z,27.21
2018-07-04T09:20:31.851Z,26.65
2018-07-04T09:23:17.688Z,27.55
2018-07-04T09:26:03.539Z,28.35
2018-07-04T09:28:49.515Z,29.39
2018-07-04T09:31:35.312Z,30.62
2018-07-04T09:34:21.251Z,30.85
2018-07-04T09:37:07.201Z,31.42
2018-07-04T09:39:53.090Z,31.59
2018-07-04T09:42:38.964Z,32.05
2018-07-04T09:45:24.786Z,33.37
2018-07-04T09:48:10.688Z,33.23
2018-07-04T09:50:56.483Z,30.46
2018-07-04T09:53:42.515Z,32.12
2018-07-04T09:56:28.344Z,32.59
2018-07-04T09:59:14.173Z,33.99
2018-07-04T10:02:00.042Z,34.44
2018-07-04T10:04:45.931Z,34.57
2018-07-04T10:07:31.710Z,36.17
2018-07-04T10:10:17.610Z,37.43
2018-07-04T10:13:03.427Z,37.95
2018-07-04T10:15:49.232Z,39.57
2018-07-04T10:18:35.111Z,41.53
2018-07-04T10:21:20.899Z,43.14
2018-07-04T10:24:06.724Z,44.63
2018-07-04T10:26:52.485Z,43.68
2018-07-04T10:29:38.364Z,43.92
2018-07-04T10:32:24.192Z,43.20
2018-07-04T10:35:10.092Z,43.28
2018-07-04T10:37:55.941Z,42.58
2018-07-04T10:40:41.895Z,42.02
2018-07-04T10:43:27.758Z,43.09
2018-07-04T10:46:13.675Z,43.49
2018-07-04T10:48:59.557Z,42.44
2018-07-04T10:51:45.396Z,42.76
2018-07-04T10:54:31.365Z,40.31
2018-07-04T10:57:17.417Z,38.92
2018-07-04T11:00:03.269Z,37.26
2018-07-04T11:02:49.252Z,35.77
2018-07-04T11:05:35.117Z,34.64
2018-07-04T11:08:20.885Z,33.93
2018-07-04T11:11:06.948Z,34.63
2018-07-04T11:13:52.781Z,34.30
2018-07-04T11:16:38.696Z,34.96
2018-07-04T11:19:24.550Z,35.18
2018-07-04T11:22:10.332Z,35.23
2018-07-04T11:24:56.381Z,35.23
2018-07-04T11:27:43.072Z,38.25
2018-07-04T11:30:29.264Z,37.20
2018-07-04T11:33:14.996Z,39.54
2018-07-04T11:36:00.791Z,39.14
2018-07-04T11:38:46.581Z,40.06
2018-07-04T11:41:32.316Z,39.25
2018-07-04T11:44:18.160Z,39.68
2018-07-04T11:46:51.492Z,39.20
2018-07-04T11:49:24.919Z,38.28
2018-07-04T11:51:58.429Z,37.71
2018-07-04T11:54:31.741Z,36.78
2018-07-04T11:57:05.298Z,37.54
2018-07-04T11:59:38.692Z,36.67
2018-07-04T12:02:12.148Z,34.77
2018-07-04T12:04:58.203Z,35.17
2018-07-04T12:07:31.556Z,32.93
2018-07-04T12:10:05.079Z,34.00
2018-07-04T12:12:38.429Z,33.63
2018-07-04T12:15:11.797Z,32.86
2018-07-04T12:17:45.144Z,33.16
2018-07-04T12:20:18.452Z,33.44
2018-07-04T12:22:51.777Z,33.94
2018-07-04T12:25:25.214Z,33.41
2018-07-04T12:27:58.485Z,36.93
2018-07-04T12:30:31.800Z,37.09
2018-07-04T12:33:05.276Z,37.56
2018-07-04T12:35:38.779Z,34.81
2018-07-04T12:38:12.216Z,36.19
2018-07-04T12:40:45.541Z,36.98
2018-07-04T12:43:19.073Z,37.56
2018-07-04T12:45:52.521Z,37.49
2018-07-04T12:48:26.038Z,37.09
2018-07-04T12:50:59.569Z,39.26
2018-07-04T12:53:32.989Z,38.46
2018-07-04T12:56:19.036Z,39.21
2018-07-04T12:59:04.897Z,38.62
2018-07-04T13:01:50.754Z,38.85
2018-07-04T13:04:36.664Z,40.34
2018-07-04T13:07:23.064Z,40.48
2018-07-04T13:10:08.960Z,41.00
2018-07-04T13:12:54.629Z,40.44
2018-07-04T13:15:40.501Z,41.36
2018-07-04T13:18:26.380Z,42.23
2018-07-04T13:21:12.266Z,41.67
2018-07-04T13:23:58.127Z,42.28
2018-07-04T13:26:43.997Z,41.84
2018-07-04T13:29:29.853Z,41.32
2018-07-04T13:32:15.915Z,41.37
2018-07-04T13:35:01.751Z,41.43
2018-07-04T13:37:47.640Z,41.51
2018-07-04T13:40:33.372Z,41.23
2018-07-04T13:43:19.268Z,42.64
2018-07-04T13:46:05.094Z,42.38
2018-07-04T13:48:51.101Z,42.28
2018-07-04T13:51:37.021Z,42.57
2018-07-04T13:54:23.060Z,42.61
2018-07-04T13:57:08.888Z,41.31
2018-07-04T13:59:54.576Z,42.00
2018-07-04T14:02:40.482Z,42.42
2018-07-04T14:05:26.085Z,42.04
2018-07-04T14:08:12.141Z,44.49
2018-07-04T14:10:58.084Z,43.40
2018-07-04T14:13:44.088Z,43.45
2018-07-04T14:16:29.856Z,43.34
2018-07-04T14:19:15.767Z,43.18
2018-07-04T14:22:01.532Z,43.87
2018-07-04T14:24:47.309Z,44.54
2018-07-04T14:27:33.112Z,45.92
2018-07-04T14:30:19.098Z,46.11
2018-07-04T14:33:04.997Z,45.29
2018-07-04T14:35:50.753Z,45.75
2018-07-04T14:38:36.506Z,45.38
2018-07-04T14:41:22.361Z,46.47
2018-07-04T14:44:08.330Z,45.35
2018-07-04T14:46:53.900Z,47.19
2018-07-04T14:49:39.892Z,46.34
2018-07-04T14:52:25.847Z,47.29
2018-07-04T14:55:11.624Z,46.98
2018-07-04T14:57:57.636Z,47.05
2018-07-04T15:00:43.496Z,47.73
2018-07-04T15:03:29.439Z,47.45
2018-07-04T15:06:15.258Z,47.79
2018-07-04T15:09:01.131Z,48.56
2018-07-04T15:11:47.022Z,48.83
2018-07-04T15:14:32.893Z,48.78
2018-07-04T15:17:18.835Z,50.61
2018-07-04T15:20:04.860Z,49.87
2018-07-04T15:22:50.926Z,50.08
2018-07-04T15:25:36.813Z,49.96
2018-07-04T15:28:22.753Z,48.75
2018-07-04T15:31:08.640Z,49.79
2018-07-04T15:33:54.381Z,49.76
2018-07-04T15:36:40.211Z,50.70
2018-07-04T15:39:26.063Z,50.50
2018-07-04T15:42:11.917Z,50.50
2018-07-04T15:44:57.743Z,51.64
2018-07-04T15:47:43.520Z,51.95
2018-07-04T15:50:29.498Z,52.71
2018-07-04T15:53:15.368Z,51.90
2018-07-04T15:56:01.217Z,51.93
2018-07-04T15:58:47.059Z,50.73
2018-07-04T16:01:32.920Z,50.10
2018-07-04T16:04:18.792Z,50.80
2018-07-04T16:07:04.741Z,51.32
2018-07-04T16:09:50.444Z,52.66
2018-07-04T16:12:36.357Z,52.22
2018-07-04T16:15:22.136Z,52.44
2018-07-04T16:18:07.968Z,52.67
2018-07-04T16:20:53.749Z,51.91
2018-07-04T16:23:39.580Z,51.90
2018-07-04T16:26:25.632Z,53.00
2018-07-04T16:29:11.596Z,54.10
2018-07-04T16:31:57.575Z,52.98
2018-07-04T16:34:43.495Z,52.36
2018-07-04T16:37:29.344Z,52.54
2018-07-04T16:40:15.094Z,52.42
2018-07-04T16:43:00.933Z,51.58
2018-07-04T16:45:46.792Z,52.59
2018-07-04T16:48:32.839Z,54.37
2018-07-04T16:51:18.785Z,54.16
2018-07-04T16:54:04.571Z,53.50
2018-07-04T16:56:50.641Z,53.56
2018-07-04T16:59:36.633Z,53.66
2018-07-04T17:02:22.384Z,53.81
2018-07-04T17:05:07.980Z,53.41
2018-07-04T17:07:53.812Z,54.29
2018-07-04T17:10:39.705Z,53.91
2018-07-04T17:13:25.464Z,53.98
2018-07-04T17:16:11.241Z,54.42
2018-07-04T17:18:57.156Z,54.06
2018-07-04T17:21:42.968Z,54.51
2018-07-04T17:24:28.811Z,54.47
2018-07-04T17:27:14.544Z,54.75
2018-07-04T17:30:00.345Z,54.30
2018-07-04T17:32:46.283Z,53.93
2018-07-04T17:35:32.169Z,54.45
2018-07-04T17:38:18.021Z,54.64
2018-07-04T17:41:03.775Z,54.93
2018-07-04T17:43:49.592Z,55.24
2018-07-04T17:46:35.336Z,54.48
2018-07-04T17:49:21.147Z,54.78
2018-07-04T17:52:06.933Z,55.61
2018-07-04T17:54:52.677Z,54.74
2018-07-04T17:57:38.632Z,54.74
2018-07-04T18:00:24.396Z,55.26
2018-07-04T18:03:09.992Z,55.01
2018-07-04T18:05:55.979Z,55.16
2018-07-04T18:08:41.959Z,55.46
2018-07-04T18:11:27.976Z,55.69
2018-07-04T18:14:13.956Z,56.08
2018-07-04T18:16:59.825Z,56.61
2018-07-04T18:19:45.616Z,56.05
2018-07-04T18:22:31.592Z,55.37
2018-07-04T18:25:17.382Z,56.54
2018-07-04T18:28:03.398Z,56.89
2018-07-04T18:30:49.264Z,57.63
2018-07-04T18:33:34.929Z,56.80
2018-07-04T18:36:20.645Z,56.15
2018-07-04T18:39:06.641Z,57.35
2018-07-04T18:41:52.436Z,56.29
2018-07-04T18:44:38.246Z,56.75
2018-07-04T18:47:24.121Z,56.86
2018-07-04T18:50:09.904Z,57.94
2018-07-04T18:52:55.773Z,58.29
2018-07-04T18:55:41.576Z,58.76
2018-07-04T18:58:27.473Z,58.84
2018-07-04T19:01:13.542Z,59.12
2018-07-04T19:03:59.489Z,60.55
2018-07-04T19:06:45.339Z,60.66
2018-07-04T19:09:31.279Z,61.35
2018-07-04T19:12:17.013Z,61.42
2018-07-04T19:15:02.937Z,62.26
2018-07-04T19:17:48.914Z,62.87
2018-07-04T19:20:34.668Z,63.00
2018-07-04T19:23:20.565Z,63.59
2018-07-04T19:26:06.336Z,63.84
2018-07-04T19:28:52.125Z,64.28
2018-07-04T19:31:38.057Z,65.08
2018-07-04T19:34:23.977Z,65.18
2018-07-04T19:37:09.931Z,65.56
2018-07-04T19:39:55.845Z,65.42
2018-07-04T19:42:41.740Z,65.60
2018-07-04T19:45:27.600Z,65.78
2018-07-04T19:48:13.398Z,66.43
2018-07-04T19:50:59.251Z,65.75
2018-07-04T19:53:45.035Z,65.68
2018-07-04T19:56:30.824Z,65.77
2018-07-04T19:59:16.749Z,66.38
2018-07-04T20:02:02.621Z,65.98
2018-07-04T20:04:48.540Z,66.67
2018-07-04T20:07:34.284Z,67.25
2018-07-04T20:10:20.036Z,68.45
2018-07-04T20:13:05.961Z,68.08
2018-07-04T20:15:51.821Z,68.34
2018-07-04T20:18:37.749Z,68.37
2018-07-04T20:21:23.649Z,68.17
2018-07-04T20:24:09.456Z,68.32
2018-07-04T20:26:55.413Z,67.52
2018-07-04T20:29:41.320Z,67.69
2018-07-04T20:32:27.164Z,68.07
2018-07-04T20:35:13.185Z,68.12
2018-07-04T20:37:58.963Z,68.42
2018-07-04T20:40:44.876Z,69.16
2018-07-04T20:43:31.094Z,69.84
2018-07-04T20:46:16.736Z,70.76
2018-07-04T20:49:02.545Z,71.40
2018-07-04T20:51:48.354Z,72.21
2018-07-04T20:54:34.177Z,72.05
2018-07-04T20:57:19.946Z,72.55
2018-07-04T21:00:05.796Z,72.62
2018-07-04T21:02:51.811Z,72.61
2018-07-04T21:05:37.755Z,72.66
2018-07-04T21:08:23.713Z,72.79
2018-07-04T21:11:09.456Z,72.58
2018-07-04T21:13:55.932Z,73.11
2018-07-04T21:16:42.420Z,72.71
2018-07-04T21:19:28.450Z,72.37
2018-07-04T21:22:14.323Z,72.69
2018-07-04T21:25:00.117Z,72.85
2018-07-04T21:27:46.052Z,72.84
2018-07-04T21:30:32.000Z,73.17
2018-07-04T21:33:17.831Z,72.83
2018-07-04T21:36:03.764Z,73.43
2018-07-04T21:38:49.629Z,73.05
2018-07-04T21:41:35.564Z,72.90
2018-07-04T21:44:21.308Z,73.13
2018-07-04T21:47:07.363Z,72.65
2018-07-04T21:49:53.211Z,71.74
2018-07-04T21:52:39.118Z,70.66
2018-07-04T21:55:24.876Z,70.03
2018-07-04T21:58:10.770Z,69.67
2018-07-04T22:00:56.641Z,69.23
2018-07-04T22:03:42.702Z,68.15
2018-07-04T22:06:28.478Z,67.91
2018-07-04T22:09:14.337Z,67.42
2018-07-04T22:12:00.369Z,66.73
2018-07-04T22:14:46.380Z,66.97
2018-07-04T22:17:32.149Z,67.38
2018-07-04T22:20:18.107Z,67.25
2018-07-04T22:23:04.068Z,67.54
2018-07-04T22:25:50.069Z,67.83
2018-07-04T22:28:35.868Z,68.11
2018-07-04T22:31:21.772Z,68.07
2018-07-04T22:34:07.605Z,68.25
2018-07-04T22:36:53.280Z,68.59
2018-07-04T22:39:39.205Z,69.22
2018-07-04T22:42:25.099Z,69.23
2018-07-04T22:45:11.008Z,69.71
2018-07-04T22:47:56.812Z,70.25
2018-07-04T22:50:42.708Z,70.47
2018-07-04T22:53:28.572Z,71.42
2018-07-04T22:56:15.447Z,71.67
2018-07-04T22:59:01.321Z,71.89
2018-07-04T23:01:47.354Z,72.89
2018-07-04T23:04:33.141Z,73.40
2018-07-04T23:07:19.277Z,74.26
2018-07-04T23:10:05.316Z,74.45
2018-07-04T23:12:50.952Z,75.41
2018-07-04T23:15:36.800Z,76.08
2018-07-04T23:18:22.572Z,76.36
2018-07-04T23:21:08.725Z,77.00
2018-07-04T23:23:54.542Z,77.42
2018-07-04T23:26:40.345Z,77.10
2018-07-04T23:29:26.218Z,77.20
2018-07-04T23:32:11.848Z,76.40
2018-07-04T23:34:57.684Z,76.54
2018-07-04T23:37:43.541Z,76.81
2018-07-04T23:40:29.480Z,77.13
2018-07-04T23:43:15.269Z,77.07
2018-07-04T23:46:01.151Z,77.54
2018-07-04T23:48:46.988Z,77.24
2018-07-04T23:51:32.785Z,77.53
2018-07-04T23:54:18.681Z,77.60
2018-07-04T23:57:04.396Z,77.46
2018-07-04T23:59:50.232Z,78.41
